createdAt,value
2017-05-03T00:01:36.798Z,14.04
2017-05-03T00:04:04.548Z,13.90
2017-05-03T00:06:31.606Z,12.00
2017-05-03T00:08:59.785Z,13.84
2017-05-03T00:11:26.773Z,15.46
2017-05-03T00:13:53.792Z,12.30
2017-05-03T00:16:21.936Z,13.36
2017-05-03T00:18:48.937Z,14.40
2017-05-03T00:21:15.960Z,13.68
2017-05-03T00:23:43.990Z,13.34
2017-05-03T00:26:11.016Z,14.76
2017-05-03T00:28:38.012Z,13.90
2017-05-03T00:31:05.472Z,16.04
2017-05-03T00:33:32.453Z,15.12
2017-05-03T00:35:59.459Z,14.14
2017-05-03T00:38:26.919Z,14.86
2017-05-03T00:40:53.949Z,14.70
2017-05-03T00:43:20.984Z,15.78
2017-05-03T00:45:48.348Z,15.72
2017-05-03T00:48:15.366Z,16.22
2017-05-03T00:50:42.349Z,15.70
2017-05-03T00:53:09.693Z,14.26
2017-05-03T00:55:36.696Z,15.64
2017-05-03T00:58:04.484Z,20.68
2017-05-03T01:00:31.783Z,17.02
2017-05-03T01:02:58.794Z,17.82
2017-05-03T01:05:25.810Z,19.92
2017-05-03T01:07:54.449Z,17.52
2017-05-03T01:10:21.443Z,17.54
2017-05-03T01:12:49.174Z,18.62
2017-05-03T01:15:16.541Z,24.04
2017-05-03T01:17:43.523Z,16.00
2017-05-03T01:20:10.532Z,15.72
2017-05-03T01:22:37.981Z,17.16
2017-05-03T01:25:05.746Z,15.12
2017-05-03T01:27:32.809Z,17.16
2017-05-03T01:30:00.129Z,15.22
2017-05-03T01:32:27.161Z,15.32
2017-05-03T01:34:54.144Z,16.32
2017-05-03T01:37:21.421Z,16.34
2017-05-03T01:39:48.428Z,16.22
2017-05-03T01:42:15.425Z,15.74
2017-05-03T01:44:43.544Z,15.22
2017-05-03T01:47:10.528Z,13.80
2017-05-03T01:49:37.544Z,13.40
2017-05-03T01:52:04.891Z,14.96
2017-05-03T01:54:31.958Z,13.74
2017-05-03T01:56:59.108Z,12.90
2017-05-03T01:59:26.558Z,13.98
2017-05-03T02:01:53.564Z,12.88
2017-05-03T02:04:20.606Z,13.94
2017-05-03T02:06:48.539Z,14.76
2017-05-03T02:09:15.524Z,12.68
2017-05-03T02:11:43.278Z,13.26
2017-05-03T02:14:11.393Z,13.24
2017-05-03T02:16:38.400Z,14.54
2017-05-03T02:19:06.128Z,15.94
2017-05-03T02:21:33.560Z,16.44
2017-05-03T02:24:00.556Z,15.08
2017-05-03T02:26:28.357Z,12.30
2017-05-03T02:28:55.745Z,15.24
2017-05-03T02:31:22.724Z,15.78
2017-05-03T02:33:49.708Z,13.98
2017-05-03T02:36:17.207Z,17.78
2017-05-03T02:38:44.210Z,14.66
2017-05-03T02:41:11.189Z,14.52
2017-05-03T02:43:38.704Z,17.14
2017-05-03T02:46:06.435Z,14.80
2017-05-03T02:48:34.192Z,14.74
2017-05-03T02:51:01.640Z,13.72
2017-05-03T02:53:28.656Z,15.94
2017-05-03T02:55:55.691Z,15.54
2017-05-03T02:58:23.124Z,14.26
2017-05-03T03:00:50.132Z,15.04
2017-05-03T03:03:17.163Z,15.50
2017-05-03T03:05:44.448Z,15.50
2017-05-03T03:08:11.442Z,16.46
2017-05-03T03:10:38.440Z,14.92
2017-05-03T03:13:05.880Z,17.12
2017-05-03T03:15:32.864Z,17.60
2017-05-03T03:18:00.632Z,16.28
2017-05-03T03:20:28.753Z,18.42
2017-05-03T03:22:55.786Z,16.12
2017-05-03T03:25:22.762Z,17.66
2017-05-03T03:27:50.333Z,17.62
2017-05-03T03:30:17.347Z,15.70
2017-05-03T03:32:44.332Z,16.16
2017-05-03T03:35:11.661Z,15.32
2017-05-03T03:37:38.676Z,14.50
2017-05-03T03:40:05.672Z,13.72
2017-05-03T03:42:33.025Z,15.92
2017-05-03T03:45:00.021Z,13.56
2017-05-03T03:47:27.096Z,14.80
2017-05-03T03:49:54.464Z,14.46
2017-05-03T03:52:22.352Z,15.26
2017-05-03T03:54:50.138Z,15.40
2017-05-03T03:57:18.164Z,13.36
2017-05-03T03:59:45.149Z,14.18
2017-05-03T04:02:12.180Z,12.90
2017-05-03T04:04:39.546Z,15.46
2017-05-03T04:07:06.540Z,12.16
2017-05-03T04:09:33.559Z,12.60
2017-05-03T04:12:01.001Z,12.74
2017-05-03T04:14:28.022Z,14.86
2017-05-03T04:16:55.070Z,13.96
2017-05-03T04:19:22.535Z,14.60
2017-05-03T04:21:49.579Z,13.44
2017-05-03T04:24:16.600Z,14.72
2017-05-03T04:26:44.000Z,12.04
2017-05-03T04:29:11.140Z,11.76
2017-05-03T04:31:38.320Z,10.14
2017-05-03T04:34:06.709Z,13.10
2017-05-03T04:36:33.842Z,13.44
2017-05-03T04:39:00.940Z,11.84
2017-05-03T04:41:28.442Z,11.36
2017-05-03T04:43:55.620Z,12.08
2017-05-03T04:46:22.753Z,12.98
2017-05-03T04:48:50.171Z,12.58
2017-05-03T04:51:17.275Z,10.96
2017-05-03T04:53:44.389Z,13.72
2017-05-03T04:56:11.764Z,10.74
2017-05-03T04:58:38.860Z,11.92
2017-05-03T05:01:06.752Z,12.36
2017-05-03T05:03:35.031Z,12.36
2017-05-03T05:06:02.163Z,11.90
2017-05-03T05:08:29.307Z,14.08
2017-05-03T05:10:57.515Z,12.98
2017-05-03T05:13:24.712Z,13.08
2017-05-03T05:15:51.779Z,12.92
2017-05-03T05:18:19.172Z,14.00
2017-05-03T05:20:47.034Z,13.06
2017-05-03T05:23:14.801Z,11.18
2017-05-03T05:25:42.266Z,14.38
2017-05-03T05:28:10.033Z,13.32
2017-05-03T05:30:37.835Z,12.68
2017-05-03T05:33:05.205Z,14.76
2017-05-03T05:35:32.246Z,12.92
2017-05-03T05:37:59.330Z,13.42
2017-05-03T05:40:26.692Z,14.76
2017-05-03T05:42:53.747Z,14.56
2017-05-03T05:45:22.109Z,15.52
2017-05-03T05:47:50.240Z,13.82
2017-05-03T05:50:17.269Z,13.44
2017-05-03T05:52:44.314Z,14.20
2017-05-03T05:55:11.846Z,12.22
2017-05-03T05:57:38.927Z,13.62
2017-05-03T06:00:06.051Z,14.34
2017-05-03T06:02:34.191Z,12.50
2017-05-03T06:05:03.597Z,14.32
2017-05-03T06:07:30.929Z,13.70
2017-05-03T06:09:58.445Z,15.58
2017-05-03T06:12:25.595Z,15.02
2017-05-03T06:14:53.916Z,15.36
2017-05-03T06:17:21.464Z,15.50
2017-05-03T06:19:48.523Z,15.96
2017-05-03T06:22:16.292Z,17.18
2017-05-03T06:24:44.479Z,14.02
2017-05-03T06:27:11.523Z,15.86
2017-05-03T06:29:39.279Z,16.44
2017-05-03T06:32:06.656Z,15.76
2017-05-03T06:34:34.411Z,14.28
2017-05-03T06:37:01.450Z,18.48
2017-05-03T06:39:29.627Z,17.28
2017-05-03T06:41:57.373Z,16.58
2017-05-03T06:44:25.329Z,17.74
2017-05-03T06:46:52.843Z,16.16
2017-05-03T06:49:19.911Z,15.26
2017-05-03T06:51:46.940Z,15.08
2017-05-03T06:54:14.529Z,14.96
2017-05-03T06:56:41.552Z,15.02
2017-05-03T06:59:08.556Z,14.14
2017-05-03T07:01:36.709Z,15.02
2017-05-03T07:04:03.794Z,16.40
2017-05-03T07:06:30.813Z,15.96
2017-05-03T07:08:59.157Z,17.40
2017-05-03T07:11:26.958Z,21.34
2017-05-03T07:13:54.708Z,15.16
2017-05-03T07:16:22.149Z,16.58
2017-05-03T07:18:49.966Z,16.70
2017-05-03T07:21:16.976Z,15.52
2017-05-03T07:23:44.499Z,16.52
2017-05-03T07:26:11.533Z,19.78
2017-05-03T07:28:38.575Z,21.72
2017-05-03T07:31:05.964Z,20.60
2017-05-03T07:33:33.012Z,20.78
2017-05-03T07:36:00.079Z,18.84
2017-05-03T07:38:27.605Z,19.46
2017-05-03T07:40:54.632Z,20.04
2017-05-03T07:43:21.694Z,22.92
2017-05-03T07:45:49.621Z,17.98
2017-05-03T07:48:16.645Z,16.72
2017-05-03T07:50:43.720Z,17.22
2017-05-03T07:53:11.152Z,17.86
2017-05-03T07:55:38.208Z,18.58
2017-05-03T07:58:05.261Z,18.26
2017-05-03T08:00:32.620Z,18.84
2017-05-03T08:02:59.657Z,19.20
2017-05-03T08:05:26.728Z,16.70
2017-05-03T08:07:54.185Z,15.82
2017-05-03T08:10:21.207Z,23.80
2017-05-03T08:12:48.250Z,21.34
2017-05-03T08:15:15.590Z,21.02
2017-05-03T08:17:42.606Z,21.14
2017-05-03T08:20:09.621Z,18.80
2017-05-03T08:22:37.780Z,23.66
2017-05-03T08:25:04.815Z,25.26
2017-05-03T08:27:31.876Z,23.14
2017-05-03T08:29:59.338Z,23.16
2017-05-03T08:32:27.121Z,21.04
2017-05-03T08:34:54.856Z,18.46
2017-05-03T08:37:22.305Z,19.28
2017-05-03T08:39:50.111Z,19.58
2017-05-03T08:42:17.899Z,23.56
2017-05-03T08:44:45.337Z,18.38
2017-05-03T08:47:12.396Z,18.86
2017-05-03T08:49:39.477Z,17.56
2017-05-03T08:52:06.851Z,18.78
2017-05-03T08:54:33.899Z,19.12
2017-05-03T08:57:00.954Z,17.04
2017-05-03T08:59:28.497Z,16.54
2017-05-03T09:01:55.566Z,17.76
2017-05-03T09:04:22.606Z,17.00
2017-05-03T09:06:50.276Z,16.60
2017-05-03T09:09:17.319Z,18.52
2017-05-03T09:11:44.364Z,15.52
2017-05-03T09:14:11.797Z,16.30
2017-05-03T09:16:38.808Z,18.26
2017-05-03T09:19:05.814Z,17.14
2017-05-03T09:21:33.348Z,19.06
2017-05-03T09:24:00.416Z,17.54
2017-05-03T09:26:27.473Z,18.20
2017-05-03T09:28:54.864Z,17.72
2017-05-03T09:31:21.955Z,16.16
2017-05-03T09:33:48.989Z,16.20
2017-05-03T09:36:17.139Z,16.14
2017-05-03T09:38:44.166Z,15.62
2017-05-03T09:41:11.216Z,14.64
2017-05-03T09:43:38.586Z,16.64
2017-05-03T09:46:05.604Z,14.48
2017-05-03T09:48:32.649Z,14.08
2017-05-03T09:51:00.022Z,14.74
2017-05-03T09:53:27.818Z,15.18
2017-05-03T09:55:54.864Z,16.16
2017-05-03T09:58:22.282Z,15.88
2017-05-03T10:00:50.101Z,13.42
2017-05-03T10:03:17.135Z,15.70
2017-05-03T10:05:44.559Z,14.58
2017-05-03T10:08:12.344Z,14.84
2017-05-03T10:10:39.370Z,12.82
2017-05-03T10:13:07.496Z,14.42
2017-05-03T10:15:34.535Z,13.70
2017-05-03T10:18:01.546Z,13.72
2017-05-03T10:20:28.999Z,13.66
2017-05-03T10:22:56.060Z,14.32
2017-05-03T10:25:23.111Z,13.54
2017-05-03T10:27:50.527Z,12.72
2017-05-03T10:30:17.529Z,13.94
2017-05-03T10:32:44.560Z,12.66
2017-05-03T10:35:11.936Z,14.22
2017-05-03T10:37:38.997Z,13.62
2017-05-03T10:40:06.792Z,11.72
2017-05-03T10:42:34.196Z,12.86
2017-05-03T10:45:01.224Z,12.44
2017-05-03T10:47:28.240Z,10.80
2017-05-03T10:49:56.360Z,10.82
2017-05-03T10:52:23.411Z,12.30
2017-05-03T10:54:50.396Z,11.66
2017-05-03T10:57:17.841Z,10.64
2017-05-03T10:59:51.852Z,9.82
2017-05-03T11:02:19.219Z,10.64
2017-05-03T11:04:46.267Z,11.18
2017-05-03T11:07:13.303Z,10.82
2017-05-03T11:09:40.769Z,11.56
2017-05-03T11:12:07.823Z,9.56
2017-05-03T11:14:34.871Z,10.24
2017-05-03T11:17:02.282Z,10.14
2017-05-03T11:19:29.344Z,10.50
2017-05-03T11:21:56.367Z,9.82
2017-05-03T11:24:23.915Z,9.40
2017-05-03T11:26:51.148Z,8.82
2017-05-03T11:29:18.205Z,10.54
2017-05-03T11:31:45.565Z,9.46
2017-05-03T11:34:12.562Z,8.50
2017-05-03T11:36:39.591Z,8.34
2017-05-03T11:39:06.958Z,8.56
2017-05-03T11:41:33.996Z,7.82
2017-05-03T11:44:01.021Z,7.58
2017-05-03T11:46:29.169Z,9.02
2017-05-03T11:48:56.175Z,7.60
2017-05-03T11:51:23.200Z,7.28
2017-05-03T11:53:50.562Z,9.12
2017-05-03T11:56:17.596Z,7.72
2017-05-03T11:58:44.695Z,8.26
2017-05-03T12:01:12.034Z,6.84
2017-05-03T12:03:39.879Z,7.60
2017-05-03T12:06:06.911Z,7.62
2017-05-03T12:08:34.301Z,7.60
2017-05-03T12:11:01.336Z,7.14
2017-05-03T12:13:28.352Z,7.50
2017-05-03T12:15:55.752Z,7.88
2017-05-03T12:18:22.798Z,6.86
2017-05-03T12:20:50.609Z,6.56
2017-05-03T12:23:17.949Z,7.32
2017-05-03T12:25:44.981Z,6.66
2017-05-03T12:28:12.742Z,7.16
2017-05-03T12:30:40.946Z,7.38
2017-05-03T12:33:07.947Z,7.66
2017-05-03T12:35:34.971Z,7.14
2017-05-03T12:38:02.262Z,8.56
2017-05-03T12:40:29.273Z,7.52
2017-05-03T12:42:56.333Z,6.62
2017-05-03T12:45:23.692Z,7.14
2017-05-03T12:47:50.698Z,6.32
2017-05-03T12:50:17.706Z,5.50
2017-05-03T12:52:45.108Z,5.72
2017-05-03T12:55:12.149Z,5.40
2017-05-03T12:57:39.160Z,5.50
2017-05-03T13:00:06.667Z,7.18
2017-05-03T13:02:33.684Z,7.16
2017-05-03T13:05:00.753Z,8.24
2017-05-03T13:07:28.110Z,7.90
2017-05-03T13:09:55.116Z,9.02
2017-05-03T13:12:22.136Z,8.60
2017-05-03T13:14:49.532Z,8.44
2017-05-03T13:17:16.561Z,9.64
2017-05-03T13:19:43.589Z,9.32
2017-05-03T13:22:10.979Z,8.78
2017-05-03T13:24:37.976Z,8.30
2017-05-03T13:27:04.977Z,8.56
2017-05-03T13:29:33.169Z,8.84
2017-05-03T13:32:00.195Z,7.78
2017-05-03T13:34:27.222Z,8.78
2017-05-03T13:36:54.674Z,8.86
2017-05-03T13:39:21.717Z,8.60
2017-05-03T13:41:48.781Z,6.92
2017-05-03T13:44:16.543Z,7.60
2017-05-03T13:46:43.580Z,8.58
2017-05-03T13:49:10.569Z,8.94
2017-05-03T13:51:37.978Z,8.08
2017-05-03T13:54:04.996Z,7.84
2017-05-03T13:56:32.039Z,7.96
2017-05-03T13:58:59.432Z,7.80
2017-05-03T14:01:27.237Z,8.54
2017-05-03T14:03:54.263Z,7.98
2017-05-03T14:06:22.408Z,8.14
2017-05-03T14:08:49.468Z,7.90
2017-05-03T14:11:16.546Z,8.12
2017-05-03T14:13:43.966Z,7.86
2017-05-03T14:16:10.980Z,7.70
2017-05-03T14:18:38.021Z,7.92
2017-05-03T14:21:05.393Z,6.80
2017-05-03T14:23:33.161Z,7.12
2017-05-03T14:26:00.210Z,7.02
2017-05-03T14:28:28.468Z,7.16
2017-05-03T14:30:55.519Z,7.78
2017-05-03T14:33:22.562Z,7.92
2017-05-03T14:35:49.904Z,6.54
2017-05-03T14:38:16.938Z,6.74
2017-05-03T14:40:44.012Z,6.96
2017-05-03T14:43:11.368Z,8.10
2017-05-03T14:45:38.394Z,7.08
2017-05-03T14:48:05.405Z,6.20
2017-05-03T14:50:32.915Z,6.24
2017-05-03T14:52:59.917Z,6.42
2017-05-03T14:55:26.965Z,6.22
2017-05-03T14:57:54.337Z,6.00
2017-05-03T15:00:21.380Z,5.94
2017-05-03T15:02:48.416Z,5.58
2017-05-03T15:05:15.788Z,6.32
2017-05-03T15:07:42.770Z,6.24
2017-05-03T15:10:09.826Z,5.58
2017-05-03T15:12:37.256Z,4.92
2017-05-03T15:15:05.012Z,7.62
2017-05-03T15:17:32.764Z,5.52
2017-05-03T15:20:00.929Z,4.68
2017-05-03T15:22:27.915Z,4.98
2017-05-03T15:24:54.921Z,4.84
2017-05-03T15:27:22.261Z,4.58
2017-05-03T15:29:49.270Z,8.78
2017-05-03T15:32:16.310Z,4.44
2017-05-03T15:34:43.620Z,5.04
2017-05-03T15:37:10.680Z,4.80
2017-05-03T15:39:38.466Z,5.42
2017-05-03T15:42:06.061Z,4.46
2017-05-03T15:44:33.151Z,4.88
2017-05-03T15:47:00.204Z,4.22
2017-05-03T15:49:27.756Z,5.36
2017-05-03T15:51:54.829Z,4.64
2017-05-03T15:54:21.857Z,4.22
2017-05-03T15:56:49.277Z,4.90
2017-05-03T15:59:16.278Z,4.46
2017-05-03T16:01:43.309Z,4.84
2017-05-03T16:04:10.871Z,4.32
2017-05-03T16:06:37.887Z,4.54
2017-05-03T16:09:04.940Z,5.66
2017-05-03T16:11:32.468Z,5.20
2017-05-03T16:13:59.480Z,4.38
2017-05-03T16:16:26.601Z,6.24
2017-05-03T16:18:54.034Z,4.00
2017-05-03T16:21:21.771Z,5.14
2017-05-03T16:23:48.878Z,4.90
2017-05-03T16:26:16.279Z,4.04
2017-05-03T16:28:44.143Z,3.70
2017-05-03T16:31:11.917Z,3.88
2017-05-03T16:33:40.083Z,4.54
2017-05-03T16:36:07.882Z,4.86
2017-05-03T16:38:34.907Z,3.58
2017-05-03T16:41:02.353Z,5.32
2017-05-03T16:43:30.104Z,3.50
2017-05-03T16:45:57.131Z,4.22
2017-05-03T16:48:24.483Z,3.50
2017-05-03T16:50:52.166Z,5.44
2017-05-03T16:53:19.149Z,3.96
2017-05-03T16:55:46.661Z,4.26
2017-05-03T16:58:14.475Z,4.80
2017-05-03T17:00:41.474Z,3.72
2017-05-03T17:03:09.628Z,4.08
2017-05-03T17:05:36.664Z,3.24
2017-05-03T17:08:03.673Z,3.28
2017-05-03T17:10:31.069Z,3.72
2017-05-03T17:12:58.075Z,3.98
2017-05-03T17:15:25.111Z,3.62
2017-05-03T17:17:52.671Z,4.34
2017-05-03T17:20:19.977Z,3.52
2017-05-03T17:22:47.803Z,3.82
2017-05-03T17:25:15.166Z,4.12
2017-05-03T17:27:42.237Z,5.30
2017-05-03T17:30:16.602Z,3.84
2017-05-03T17:32:43.703Z,4.18
2017-05-03T17:35:11.564Z,3.40
2017-05-03T17:37:39.669Z,3.98
2017-05-03T17:40:06.717Z,3.12
2017-05-03T17:42:33.809Z,3.74
2017-05-03T17:45:01.951Z,3.44
2017-05-03T17:47:28.999Z,4.60
2017-05-03T17:49:56.086Z,4.36
2017-05-03T17:52:24.186Z,3.30
2017-05-03T17:54:51.264Z,3.82
2017-05-03T17:57:18.342Z,4.68
2017-05-03T17:59:49.833Z,3.60
2017-05-03T18:02:18.331Z,3.44
2017-05-03T18:04:45.405Z,3.56
2017-05-03T18:07:12.910Z,3.46
2017-05-03T18:09:39.995Z,5.04
2017-05-03T18:12:07.076Z,4.04
2017-05-03T18:14:35.954Z,4.88
2017-05-03T18:17:03.028Z,5.58
2017-05-03T18:19:30.054Z,5.22
2017-05-03T18:21:58.145Z,3.72
2017-05-03T18:24:25.192Z,3.52
2017-05-03T18:26:52.604Z,4.64
2017-05-03T18:29:20.779Z,4.06
2017-05-03T18:31:48.567Z,5.54
2017-05-03T18:34:15.625Z,2.38
2017-05-03T18:36:42.998Z,3.44
2017-05-03T18:39:10.072Z,3.90
2017-05-03T18:41:37.238Z,4.24
2017-05-03T18:44:04.705Z,2.72
2017-05-03T18:46:32.521Z,2.80
2017-05-03T18:48:59.569Z,4.40
2017-05-03T18:51:26.966Z,5.28
2017-05-03T18:53:54.765Z,3.10
2017-05-03T18:56:29.260Z,4.10
2017-05-03T18:58:57.063Z,3.38
2017-05-03T19:01:24.135Z,3.22
2017-05-03T19:03:52.329Z,2.82
2017-05-03T19:06:20.182Z,4.94
2017-05-03T19:08:47.953Z,2.76
2017-05-03T19:11:15.430Z,3.18
2017-05-03T19:13:42.450Z,3.38
2017-05-03T19:16:10.264Z,3.66
2017-05-03T19:18:37.672Z,5.86
2017-05-03T19:21:04.722Z,4.52
2017-05-03T19:23:32.476Z,2.62
2017-05-03T19:25:59.815Z,4.06
2017-05-03T19:28:26.869Z,3.40
2017-05-03T19:30:54.678Z,3.30
2017-05-03T19:33:22.084Z,4.66
2017-05-03T19:35:49.096Z,2.64
2017-05-03T19:38:16.128Z,3.24
2017-05-03T19:40:43.527Z,3.20
2017-05-03T19:43:10.500Z,3.40
2017-05-03T19:45:38.293Z,3.32
2017-05-03T19:48:05.776Z,6.44
2017-05-03T19:50:32.776Z,2.96
2017-05-03T19:52:59.813Z,2.50
2017-05-03T19:55:27.156Z,2.20
2017-05-03T19:57:54.201Z,3.72
2017-05-03T20:00:21.253Z,3.60
2017-05-03T20:02:48.578Z,5.60
2017-05-03T20:05:15.696Z,6.42
2017-05-03T20:07:42.731Z,3.20
2017-05-03T20:10:11.796Z,3.72
2017-05-03T20:12:38.852Z,2.70
2017-05-03T20:15:05.928Z,2.94
2017-05-03T20:17:34.095Z,6.32
2017-05-03T20:20:01.265Z,3.92
2017-05-03T20:22:28.449Z,3.98
2017-05-03T20:24:55.953Z,3.84
2017-05-03T20:27:23.082Z,4.88
2017-05-03T20:29:50.176Z,2.92
2017-05-03T20:32:17.791Z,5.78
2017-05-03T20:34:44.822Z,3.68
2017-05-03T20:37:11.861Z,3.66
2017-05-03T20:39:39.235Z,4.04
2017-05-03T20:42:07.024Z,3.18
2017-05-03T20:44:34.037Z,3.90
2017-05-03T20:47:01.406Z,3.88
2017-05-03T20:49:28.521Z,3.24
2017-05-03T20:51:55.527Z,3.54
2017-05-03T20:54:22.955Z,4.04
2017-05-03T20:56:50.055Z,2.68
2017-05-03T20:59:17.149Z,2.90
2017-05-03T21:01:44.459Z,2.82
2017-05-03T21:04:11.481Z,4.88
2017-05-03T21:06:38.514Z,2.72
2017-05-03T21:09:05.843Z,5.68
2017-05-03T21:11:32.851Z,3.60
2017-05-03T21:13:59.864Z,2.98
2017-05-03T21:16:27.900Z,3.22
2017-05-03T21:18:54.925Z,2.64
2017-05-03T21:21:21.931Z,3.98
2017-05-03T21:23:50.070Z,3.50
2017-05-03T21:26:17.095Z,5.10
2017-05-03T21:28:44.102Z,2.80
2017-05-03T21:31:12.241Z,3.34
2017-05-03T21:33:39.668Z,3.32
2017-05-03T21:36:06.664Z,3.68
2017-05-03T21:38:34.894Z,3.16
2017-05-03T21:41:01.924Z,3.52
2017-05-03T21:43:28.993Z,2.82
2017-05-03T21:45:56.333Z,3.74
2017-05-03T21:48:23.329Z,3.32
2017-05-03T21:50:50.364Z,3.50
2017-05-03T21:53:17.747Z,2.90
2017-05-03T21:55:44.766Z,3.92
2017-05-03T21:58:11.768Z,3.48
2017-05-03T22:00:39.069Z,4.68
2017-05-03T22:03:06.081Z,3.92
2017-05-03T22:05:33.066Z,3.80
2017-05-03T22:08:00.356Z,4.52
2017-05-03T22:10:28.125Z,2.72
2017-05-03T22:12:55.112Z,4.16
2017-05-03T22:15:22.503Z,5.30
2017-05-03T22:17:49.551Z,6.90
2017-05-03T22:20:16.599Z,4.38
2017-05-03T22:22:43.948Z,5.44
2017-05-03T22:25:10.944Z,4.56
2017-05-03T22:27:38.442Z,5.72
2017-05-03T22:30:05.800Z,4.04
2017-05-03T22:32:32.829Z,3.56
2017-05-03T22:34:59.854Z,5.68
2017-05-03T22:37:27.252Z,3.30
2017-05-03T22:39:54.221Z,3.22
2017-05-03T22:42:21.238Z,3.60
2017-05-03T22:44:48.624Z,3.38
2017-05-03T22:47:15.606Z,5.90
2017-05-03T22:49:42.629Z,5.08
2017-05-03T22:52:09.938Z,4.18
2017-05-03T22:54:36.941Z,4.12
2017-05-03T22:57:03.958Z,4.30
2017-05-03T22:59:31.413Z,4.28
2017-05-03T23:01:58.432Z,3.10
2017-05-03T23:04:25.428Z,4.88
2017-05-03T23:06:52.742Z,7.82
2017-05-03T23:09:19.746Z,2.98
2017-05-03T23:11:46.745Z,2.80
2017-05-03T23:14:14.108Z,5.50
2017-05-03T23:16:41.192Z,4.14
2017-05-03T23:19:08.932Z,5.16
2017-05-03T23:21:36.261Z,6.34
2017-05-03T23:24:03.290Z,3.52
2017-05-03T23:26:30.301Z,5.62
2017-05-03T23:28:57.625Z,5.20
2017-05-03T23:31:24.613Z,3.78
2017-05-03T23:33:51.625Z,3.32
2017-05-03T23:36:18.952Z,4.50
2017-05-03T23:38:45.955Z,4.46
2017-05-03T23:41:13.719Z,4.04
2017-05-03T23:43:41.833Z,2.70
2017-05-03T23:46:08.838Z,4.44
2017-05-03T23:48:36.603Z,4.40
2017-05-03T23:51:03.908Z,2.68
2017-05-03T23:53:30.909Z,5.94
2017-05-03T23:55:58.663Z,3.76
2017-05-03T23:58:25.989Z,3.56
